createdAt,value
2017-04-07T16:32:05.938Z,9.46
2017-04-07T16:33:04.345Z,11.36
2017-04-07T16:34:02.706Z,10.92
2017-04-07T16:35:00.364Z,10.56
2017-04-07T16:35:58.723Z,11.66
2017-04-07T16:36:56.371Z,10.78
2017-04-07T16:37:54.043Z,10.70
2017-04-07T16:38:51.653Z,10.94
2017-04-07T16:39:49.488Z,9.90
2017-04-07T16:40:47.064Z,9.62
2017-04-07T16:41:44.662Z,10.84
2017-04-07T16:42:42.232Z,9.96
2017-04-07T16:43:39.837Z,9.64
2017-04-07T16:44:37.432Z,11.92
2017-04-07T16:45:35.020Z,10.50
2017-04-07T16:46:32.614Z,9.92
2017-04-07T16:47:30.223Z,10.36
2017-04-07T16:48:27.837Z,11.84
2017-04-07T16:49:25.437Z,11.26
2017-04-07T16:50:22.980Z,12.50
2017-04-07T16:51:20.542Z,11.80
2017-04-07T16:52:18.121Z,12.12
2017-04-07T16:53:16.224Z,12.22
2017-04-07T16:54:13.788Z,12.32
2017-04-07T16:55:11.356Z,12.84
2017-04-07T16:56:08.927Z,12.86
2017-04-07T16:57:06.497Z,12.14
2017-04-07T16:58:04.067Z,11.78
2017-04-07T16:59:01.622Z,11.40
2017-04-07T16:59:59.165Z,12.60
2017-04-07T17:00:56.792Z,12.52
2017-04-07T17:01:54.382Z,11.00
2017-04-07T17:02:52.713Z,12.70
2017-04-07T17:03:50.291Z,11.18
2017-04-07T17:04:48.007Z,12.14
2017-04-07T17:05:45.666Z,11.42
2017-04-07T17:06:43.261Z,12.28
2017-04-07T17:07:40.820Z,10.74
2017-04-07T17:08:38.369Z,11.40
2017-04-07T17:09:36.713Z,10.48
2017-04-07T17:10:34.262Z,11.48
2017-04-07T17:11:31.984Z,11.06
2017-04-07T17:12:29.635Z,10.08
2017-04-07T17:13:27.182Z,11.68
2017-04-07T17:14:25.978Z,10.16
2017-04-07T17:15:23.549Z,10.76
2017-04-07T17:16:21.093Z,10.98
2017-04-07T17:17:18.672Z,10.76
2017-04-07T17:18:16.717Z,10.16
2017-04-07T17:19:14.269Z,9.88
2017-04-07T17:20:11.880Z,10.30
2017-04-07T17:21:10.461Z,10.68
2017-04-07T17:22:08.876Z,10.08
2017-04-07T17:23:07.196Z,10.66
2017-04-07T17:24:05.256Z,9.54
2017-04-07T17:25:04.563Z,10.90
2017-04-07T17:26:03.260Z,10.32
2017-04-07T17:27:01.600Z,9.68
2017-04-07T17:27:59.140Z,10.88
2017-04-07T17:28:56.969Z,10.74
2017-04-07T17:29:54.624Z,9.70
2017-04-07T17:30:52.177Z,10.66
2017-04-07T17:31:49.988Z,9.10
2017-04-07T17:32:48.348Z,9.42
2017-04-07T17:33:46.184Z,9.10
2017-04-07T17:34:43.727Z,9.30
2017-04-07T17:35:41.741Z,8.64
2017-04-07T17:36:39.281Z,8.88
2017-04-07T17:37:36.829Z,10.04
2017-04-07T17:38:35.209Z,9.64
2017-04-07T17:39:32.814Z,9.60
2017-04-07T17:40:31.116Z,9.34
2017-04-07T17:41:28.717Z,9.26
2017-04-07T17:42:26.272Z,9.06
2017-04-07T17:43:23.824Z,8.52
2017-04-07T17:44:21.435Z,8.82
2017-04-07T17:45:18.991Z,9.30
2017-04-07T17:46:16.568Z,8.60
2017-04-07T17:47:14.251Z,9.82
2017-04-07T17:48:12.213Z,8.86
2017-04-07T17:49:09.918Z,8.80
2017-04-07T17:50:07.496Z,8.12
2017-04-07T17:51:05.081Z,8.44
2017-04-07T17:52:03.571Z,7.78
2017-04-07T17:53:01.200Z,7.74
2017-04-07T17:53:58.785Z,8.16
2017-04-07T17:54:56.545Z,8.00
2017-04-07T17:55:54.196Z,8.02
2017-04-07T17:56:51.757Z,7.54
2017-04-07T17:57:49.325Z,6.96
2017-04-07T17:58:46.927Z,7.54
2017-04-07T17:59:44.546Z,7.56
2017-04-07T18:00:42.163Z,7.60
2017-04-07T18:01:39.740Z,7.66
2017-04-07T18:02:37.461Z,7.60
2017-04-07T18:03:36.105Z,7.80
2017-04-07T18:04:34.432Z,7.80
2017-04-07T18:05:32.066Z,8.04
2017-04-07T18:06:29.694Z,7.82
2017-04-07T18:07:27.288Z,7.30
2017-04-07T18:08:24.844Z,7.10
2017-04-07T18:09:22.438Z,6.98
2017-04-07T18:10:20.045Z,7.08
2017-04-07T18:11:17.623Z,7.98
2017-04-07T18:12:15.192Z,7.50
2017-04-07T18:13:13.531Z,7.46
2017-04-07T18:14:11.935Z,6.70
2017-04-07T18:15:09.570Z,6.96
2017-04-07T18:16:07.145Z,7.34
2017-04-07T18:17:06.010Z,7.42
2017-04-07T18:18:03.577Z,7.96
2017-04-07T18:19:01.419Z,8.14
2017-04-07T18:19:58.997Z,7.56
2017-04-07T18:20:56.571Z,8.06
2017-04-07T18:21:54.132Z,7.36
2017-04-07T18:22:52.150Z,7.60
2017-04-07T18:23:49.766Z,7.14
2017-04-07T18:24:47.419Z,7.80
2017-04-07T18:25:46.480Z,6.92
2017-04-07T18:26:44.085Z,7.70
2017-04-07T18:27:41.717Z,8.22
2017-04-07T18:28:39.817Z,7.40
2017-04-07T18:29:39.182Z,6.82
2017-04-07T18:30:36.832Z,8.04
2017-04-07T18:31:35.179Z,7.08
2017-04-07T18:32:32.880Z,7.68
2017-04-07T18:33:30.824Z,7.26
2017-04-07T18:34:29.154Z,8.10
2017-04-07T18:35:26.729Z,6.82
2017-04-07T18:36:25.106Z,6.70
2017-04-07T18:37:22.751Z,7.28
2017-04-07T18:38:20.374Z,8.16
2017-04-07T18:39:18.748Z,7.10
2017-04-07T18:40:16.348Z,6.80
2017-04-07T18:41:13.925Z,6.60
2017-04-07T18:42:12.615Z,7.30
2017-04-07T18:43:10.224Z,6.66
2017-04-07T18:44:08.552Z,7.26
2017-04-07T18:45:06.125Z,6.94
2017-04-07T18:46:03.705Z,6.84
2017-04-07T18:47:02.164Z,7.32
2017-04-07T18:47:59.969Z,6.96
2017-04-07T18:48:57.554Z,6.94
2017-04-07T18:49:55.153Z,6.28
2017-04-07T18:51:10.806Z,6.94
2017-04-07T18:52:08.371Z,7.06
2017-04-07T18:53:06.725Z,5.98
2017-04-07T18:54:04.264Z,6.12
2017-04-07T18:55:01.888Z,6.00
2017-04-07T18:55:59.457Z,7.06
2017-04-07T18:56:57.172Z,6.68
